Disclaimer

Please do not use the information listed here in-flight or in-navigation, as they are not provided to us by the airports but are provided by volunteers, so they might be outdated.

Search


Regions


Airport information page

Radio informations:
SYARIF TWR - 118.1 MHz
PEKANBARU APP - 120.8 MHz

Airport informations:
Latitude: 00° 27' 38.83" N
Longitude: 101° 26' 40.34" E
Elevation: 102 feet - 31 meters
Operating hours: Remarks
Operating agency: Military-civil joint use airport
Timezone: UTC+7
Fuel: Jet A1, without icing nhibitor.

73 octane gasoline, unleaded, No MIL Spec.

100/130 MIL Spec, low lead, aviation gasoline (BLUE)

Runway information:
18/36 - 7360 x 98 feet< - >2243 x 30 meters

Recent METARs:
WIBB 210030Z 00000KT 8000 FEW020 25/23 Q1011
WIBB 210100Z 00000KT 8000 FEW010 25/23 Q1011
WIBB 210130Z 35005KT CAVOK 26/23 Q1012

Airport on the map: